createdAt,value
2018-07-21T00:00:35.624Z,5.62
2018-07-21T00:03:04.209Z,5.95
2018-07-21T00:05:32.785Z,6.15
2018-07-21T00:08:01.378Z,5.97
2018-07-21T00:10:29.988Z,5.95
2018-07-21T00:12:58.942Z,6.42
2018-07-21T00:15:27.512Z,5.47
2018-07-21T00:17:56.025Z,6.40
2018-07-21T00:20:24.607Z,5.90
2018-07-21T00:22:53.157Z,5.97
2018-07-21T00:25:21.665Z,5.97
2018-07-21T00:27:50.467Z,6.12
2018-07-21T00:30:18.990Z,7.00
2018-07-21T00:32:47.765Z,6.12
2018-07-21T00:35:16.284Z,6.25
2018-07-21T00:37:44.858Z,6.55
2018-07-21T00:40:13.405Z,5.95
2018-07-21T00:42:42.463Z,6.05
2018-07-21T00:45:11.297Z,6.30
2018-07-21T00:47:40.081Z,5.67
2018-07-21T00:50:08.660Z,6.08
2018-07-21T00:52:37.489Z,5.45
2018-07-21T00:55:06.044Z,5.53
2018-07-21T00:57:34.550Z,5.87
2018-07-21T01:00:03.167Z,5.80
2018-07-21T01:02:32.345Z,5.37
2018-07-21T01:05:00.902Z,5.37
2018-07-21T01:07:29.521Z,5.40
2018-07-21T01:09:58.152Z,6.03
2018-07-21T01:12:26.795Z,5.87
2018-07-21T01:14:55.338Z,5.60
2018-07-21T01:17:23.919Z,5.90
2018-07-21T01:19:52.524Z,5.80
2018-07-21T01:22:21.096Z,6.58
2018-07-21T01:24:49.815Z,6.15
2018-07-21T01:27:18.366Z,5.80
2018-07-21T01:29:46.948Z,5.65
2018-07-21T01:32:15.454Z,6.00
2018-07-21T01:34:44.034Z,6.10
2018-07-21T01:37:12.589Z,6.08
2018-07-21T01:39:41.204Z,5.95
2018-07-21T01:42:09.781Z,6.22
2018-07-21T01:44:38.452Z,5.95
2018-07-21T01:47:07.372Z,5.75
2018-07-21T01:49:35.951Z,5.62
2018-07-21T01:52:04.531Z,5.72
2018-07-21T01:54:33.160Z,6.30
2018-07-21T01:57:02.053Z,6.08
2018-07-21T01:59:30.768Z,6.10
2018-07-21T02:01:59.872Z,6.15
2018-07-21T02:04:28.417Z,6.05
2018-07-21T02:06:57.232Z,6.20
2018-07-21T02:09:26.060Z,6.50
2018-07-21T02:11:54.637Z,6.78
2018-07-21T02:14:23.380Z,6.33
2018-07-21T02:16:51.902Z,6.25
2018-07-21T02:19:20.494Z,6.50
2018-07-21T02:21:49.030Z,6.03
2018-07-21T02:24:17.595Z,6.80
2018-07-21T02:26:46.176Z,7.08
2018-07-21T02:29:14.888Z,6.92
2018-07-21T02:31:43.469Z,6.60
2018-07-21T02:34:11.988Z,6.53
2018-07-21T02:36:40.634Z,6.10
2018-07-21T02:39:10.988Z,6.47
2018-07-21T02:41:39.664Z,6.30
2018-07-21T02:44:08.179Z,7.00
2018-07-21T02:46:36.741Z,6.25
2018-07-21T02:49:05.519Z,6.60
2018-07-21T02:51:34.086Z,6.28
2018-07-21T02:54:02.724Z,6.60
2018-07-21T02:56:31.528Z,6.50
2018-07-21T02:59:00.122Z,6.58
2018-07-21T03:01:28.694Z,6.75
2018-07-21T03:03:57.238Z,6.97
2018-07-21T03:06:25.700Z,6.70
2018-07-21T03:08:54.334Z,6.80
2018-07-21T03:11:22.857Z,6.65
2018-07-21T03:13:51.334Z,6.92
2018-07-21T03:16:19.890Z,6.78
2018-07-21T03:18:48.416Z,7.30
2018-07-21T03:21:16.930Z,6.60
2018-07-21T03:23:45.445Z,6.87
2018-07-21T03:26:13.981Z,7.15
2018-07-21T03:28:42.478Z,6.90
2018-07-21T03:31:10.987Z,6.47
2018-07-21T03:33:39.714Z,6.65
2018-07-21T03:36:08.259Z,7.08
2018-07-21T03:38:36.817Z,7.17
2018-07-21T03:41:05.416Z,6.40
2018-07-21T03:43:34.604Z,6.75
2018-07-21T03:46:03.594Z,7.08
2018-07-21T03:48:32.359Z,6.97
2018-07-21T03:51:01.259Z,6.15
2018-07-21T03:53:30.470Z,7.15
2018-07-21T03:55:59.473Z,6.97
2018-07-21T03:58:28.412Z,6.35
2018-07-21T04:00:57.014Z,6.62
2018-07-21T04:03:25.707Z,6.28
2018-07-21T04:05:54.348Z,6.22
2018-07-21T04:08:23.404Z,6.45
2018-07-21T04:10:52.175Z,6.97
2018-07-21T04:13:20.928Z,6.60
2018-07-21T04:15:49.604Z,6.78
2018-07-21T04:18:18.320Z,6.17
2018-07-21T04:20:47.364Z,6.70
2018-07-21T04:23:16.307Z,6.72
2018-07-21T04:25:44.870Z,6.72
2018-07-21T04:28:13.490Z,7.25
2018-07-21T04:30:42.329Z,7.40
2018-07-21T04:33:10.942Z,7.60
2018-07-21T04:35:39.992Z,6.92
2018-07-21T04:38:08.643Z,7.03
2018-07-21T04:40:38.400Z,6.97
2018-07-21T04:43:07.412Z,7.10
2018-07-21T04:45:36.292Z,7.25
2018-07-21T04:48:05.471Z,6.70
2018-07-21T04:50:34.183Z,6.87
2018-07-21T04:53:02.824Z,6.50
2018-07-21T04:55:31.474Z,6.92
2018-07-21T04:58:00.977Z,6.83
2018-07-21T05:00:30.090Z,6.25
2018-07-21T05:02:58.771Z,6.72
2018-07-21T05:05:27.384Z,6.50
2018-07-21T05:07:56.275Z,6.67
2018-07-21T05:10:24.854Z,6.40
2018-07-21T05:12:53.648Z,6.45
2018-07-21T05:15:22.265Z,6.50
2018-07-21T05:17:50.781Z,7.25
2018-07-21T05:20:19.713Z,6.65
2018-07-21T05:22:48.268Z,6.50
2018-07-21T05:25:16.853Z,6.08
2018-07-21T05:27:45.431Z,6.65
2018-07-21T05:30:14.016Z,6.55
2018-07-21T05:32:42.624Z,6.15
2018-07-21T05:35:10.841Z,6.15
2018-07-21T05:37:39.767Z,5.97
2018-07-21T05:40:08.354Z,6.60
2018-07-21T05:42:37.395Z,6.03
2018-07-21T05:45:06.410Z,6.42
2018-07-21T05:47:35.186Z,6.45
2018-07-21T05:50:04.344Z,6.97
2018-07-21T05:52:32.949Z,6.67
2018-07-21T05:55:01.749Z,7.10
2018-07-21T05:57:30.615Z,6.65
2018-07-21T05:59:59.299Z,6.72
2018-07-21T06:02:27.983Z,7.50
2018-07-21T06:04:56.537Z,7.00
2018-07-21T06:07:25.108Z,7.15
2018-07-21T06:09:54.023Z,6.50
2018-07-21T06:12:22.996Z,7.25
2018-07-21T06:14:53.620Z,6.95
2018-07-21T06:17:22.781Z,7.12
2018-07-21T06:19:52.093Z,6.95
2018-07-21T06:22:21.948Z,7.25
2018-07-21T06:24:50.586Z,6.58
2018-07-21T06:27:20.051Z,6.85
2018-07-21T06:29:48.850Z,6.85
2018-07-21T06:32:17.521Z,7.08
2018-07-21T06:34:46.152Z,6.95
2018-07-21T06:37:15.049Z,6.30
2018-07-21T06:39:43.468Z,6.30
2018-07-21T06:42:12.043Z,6.92
2018-07-21T06:44:41.943Z,6.47
2018-07-21T06:47:11.772Z,6.60
2018-07-21T06:49:40.590Z,6.45
2018-07-21T06:52:09.313Z,6.85
2018-07-21T06:54:38.818Z,6.37
2018-07-21T06:57:07.147Z,6.60
2018-07-21T06:59:35.767Z,6.55
2018-07-21T07:02:04.600Z,6.47
2018-07-21T07:04:33.247Z,6.87
2018-07-21T07:07:01.860Z,6.08
2018-07-21T07:09:30.460Z,6.28
2018-07-21T07:11:59.071Z,5.92
2018-07-21T07:14:28.127Z,6.70
2018-07-21T07:16:56.959Z,6.37
2018-07-21T07:19:25.620Z,6.30
2018-07-21T07:21:54.573Z,6.83
2018-07-21T07:24:23.544Z,7.20
2018-07-21T07:26:52.181Z,6.20
2018-07-21T07:29:20.738Z,6.35
2018-07-21T07:31:49.415Z,6.35
2018-07-21T07:34:30.589Z,6.20
2018-07-21T07:36:59.721Z,6.78
2018-07-21T07:39:28.317Z,6.62
2018-07-21T07:41:56.951Z,6.50
2018-07-21T07:44:25.620Z,6.42
2018-07-21T07:46:54.430Z,6.35
2018-07-21T07:49:22.985Z,6.53
2018-07-21T07:51:51.351Z,6.35
2018-07-21T07:54:20.010Z,6.28
2018-07-21T07:56:48.728Z,6.53
2018-07-21T07:59:17.322Z,6.45
2018-07-21T08:01:45.933Z,6.33
2018-07-21T08:04:14.521Z,7.12
2018-07-21T08:06:43.120Z,6.33
2018-07-21T08:09:12.871Z,6.47
2018-07-21T08:11:42.238Z,7.00
2018-07-21T08:14:11.110Z,6.55
2018-07-21T08:16:39.968Z,6.58
2018-07-21T08:19:09.473Z,6.42
2018-07-21T08:21:38.220Z,6.65
2018-07-21T08:24:06.934Z,6.25
2018-07-21T08:26:35.584Z,6.67
2018-07-21T08:29:04.756Z,7.10
2018-07-21T08:31:33.478Z,6.28
2018-07-21T08:34:02.533Z,6.33
2018-07-21T08:36:31.780Z,6.30
2018-07-21T08:39:00.527Z,5.92
2018-07-21T08:41:29.299Z,6.83
2018-07-21T08:43:57.853Z,6.60
2018-07-21T08:46:26.509Z,6.85
2018-07-21T08:48:55.115Z,6.92
2018-07-21T08:51:23.601Z,7.30
2018-07-21T08:53:52.656Z,6.90
2018-07-21T08:56:21.669Z,7.40
2018-07-21T08:58:50.310Z,7.50
2018-07-21T09:01:18.960Z,7.83
2018-07-21T09:03:47.565Z,7.60
2018-07-21T09:06:16.535Z,7.92
2018-07-21T09:08:45.100Z,7.22
2018-07-21T09:11:13.671Z,7.40
2018-07-21T09:13:42.364Z,7.37
2018-07-21T09:16:11.005Z,7.00
2018-07-21T09:18:39.779Z,7.33
2018-07-21T09:21:08.369Z,6.37
2018-07-21T09:23:37.280Z,5.70
2018-07-21T09:26:06.044Z,6.05
2018-07-21T09:28:34.697Z,5.92
2018-07-21T09:31:03.361Z,5.67
2018-07-21T09:33:32.578Z,5.85
2018-07-21T09:36:01.775Z,6.33
2018-07-21T09:38:31.528Z,6.10
2018-07-21T09:41:00.208Z,5.87
2018-07-21T09:43:29.424Z,6.10
2018-07-21T09:45:58.723Z,6.10
2018-07-21T09:48:27.255Z,6.17
2018-07-21T09:50:55.860Z,6.12
2018-07-21T09:53:25.014Z,6.08
2018-07-21T09:55:54.220Z,6.17
2018-07-21T09:58:23.647Z,6.42
2018-07-21T10:00:58.088Z,6.20
2018-07-21T10:03:27.392Z,6.08
2018-07-21T10:05:56.034Z,6.10
2018-07-21T10:08:25.228Z,6.37
2018-07-21T10:10:53.775Z,6.72
2018-07-21T10:13:22.348Z,5.92
2018-07-21T10:15:51.001Z,6.03
2018-07-21T10:18:19.700Z,6.65
2018-07-21T10:20:48.659Z,6.95
2018-07-21T10:23:17.281Z,6.22
2018-07-21T10:25:51.138Z,5.92
2018-07-21T10:28:25.241Z,5.78
2018-07-21T10:30:53.805Z,6.42
2018-07-21T10:33:22.425Z,6.60
2018-07-21T10:35:51.100Z,6.90
2018-07-21T10:38:19.801Z,6.45
2018-07-21T10:40:48.464Z,6.05
2018-07-21T10:43:17.413Z,5.90
2018-07-21T10:45:46.046Z,6.30
2018-07-21T10:48:14.684Z,6.20
2018-07-21T10:50:43.559Z,6.20
2018-07-21T10:53:12.197Z,6.17
2018-07-21T10:55:41.168Z,6.45
2018-07-21T10:58:10.464Z,6.03
2018-07-21T11:00:39.719Z,5.58
2018-07-21T11:03:08.503Z,6.05
2018-07-21T11:05:37.535Z,6.20
2018-07-21T11:08:06.405Z,6.00
2018-07-21T11:10:34.984Z,6.37
2018-07-21T11:13:03.622Z,6.55
2018-07-21T11:15:32.268Z,6.33
2018-07-21T11:18:01.199Z,6.33
2018-07-21T11:20:30.336Z,6.30
2018-07-21T11:22:59.089Z,6.58
2018-07-21T11:25:27.811Z,5.50
2018-07-21T11:27:56.594Z,6.15
2018-07-21T11:30:25.241Z,6.17
2018-07-21T11:32:53.877Z,6.25
2018-07-21T11:35:22.851Z,5.78
2018-07-21T11:37:51.151Z,6.95
2018-07-21T11:40:19.909Z,6.53
2018-07-21T11:42:48.578Z,6.37
2018-07-21T11:45:17.381Z,6.17
2018-07-21T11:47:45.965Z,5.92
2018-07-21T11:50:14.705Z,6.03
2018-07-21T11:52:43.257Z,5.72
2018-07-21T11:55:12.131Z,6.22
2018-07-21T11:57:41.101Z,6.40
2018-07-21T12:00:09.892Z,6.12
2018-07-21T12:02:39.476Z,6.12
2018-07-21T12:05:08.217Z,10.88
2018-07-21T12:07:37.172Z,9.55
2018-07-21T12:10:05.827Z,6.60
2018-07-21T12:12:34.447Z,6.87
2018-07-21T12:15:03.232Z,6.95
2018-07-21T12:17:31.843Z,9.60
2018-07-21T12:20:01.037Z,6.58
2018-07-21T12:22:29.808Z,6.00
2018-07-21T12:24:58.622Z,6.30
2018-07-21T12:27:27.255Z,7.10
2018-07-21T12:29:56.205Z,6.75
2018-07-21T12:32:25.052Z,7.72
2018-07-21T12:34:53.684Z,6.35
2018-07-21T12:37:22.237Z,5.95
2018-07-21T12:39:51.151Z,5.60
2018-07-21T12:42:19.747Z,5.85
2018-07-21T12:44:48.350Z,6.55
2018-07-21T12:47:16.876Z,6.30
2018-07-21T12:49:45.525Z,5.65
2018-07-21T12:52:14.236Z,5.47
2018-07-21T12:54:42.981Z,5.70
2018-07-21T12:57:11.636Z,5.72
2018-07-21T12:59:40.880Z,5.72
2018-07-21T13:02:09.456Z,5.97
2018-07-21T13:04:38.093Z,5.83
2018-07-21T13:07:06.758Z,5.65
2018-07-21T13:09:35.534Z,5.47
2018-07-21T13:12:04.303Z,6.28
2018-07-21T13:14:33.491Z,5.65
2018-07-21T13:17:02.208Z,5.87
2018-07-21T13:19:31.859Z,5.08
2018-07-21T13:22:00.488Z,5.25
2018-07-21T13:24:29.260Z,5.55
2018-07-21T13:26:57.809Z,5.00
2018-07-21T13:29:26.766Z,5.67
2018-07-21T13:31:55.345Z,5.70
2018-07-21T13:34:23.883Z,5.08
2018-07-21T13:36:52.653Z,6.00
2018-07-21T13:39:21.707Z,6.17
2018-07-21T13:41:50.484Z,5.75
2018-07-21T13:44:19.170Z,5.78
2018-07-21T13:46:48.002Z,5.78
2018-07-21T13:49:16.536Z,5.70
2018-07-21T13:51:45.245Z,6.00
2018-07-21T13:54:13.873Z,5.20
2018-07-21T13:56:42.584Z,5.58
2018-07-21T13:59:11.174Z,5.60
2018-07-21T14:01:40.405Z,5.50
2018-07-21T14:04:09.047Z,5.42
2018-07-21T14:06:38.486Z,5.20
2018-07-21T14:09:08.339Z,5.92
2018-07-21T14:11:37.682Z,5.72
2018-07-21T14:14:06.541Z,5.87
2018-07-21T14:16:35.952Z,5.78
2018-07-21T14:19:05.225Z,6.03
2018-07-21T14:21:34.209Z,5.87
2018-07-21T14:24:03.871Z,6.45
2018-07-21T14:26:32.937Z,5.97
2018-07-21T14:29:01.627Z,6.83
2018-07-21T14:31:30.422Z,6.35
2018-07-21T14:33:59.220Z,6.20
2018-07-21T14:36:29.006Z,6.17
2018-07-21T14:38:57.771Z,6.90
2018-07-21T14:41:32.838Z,6.17
2018-07-21T14:44:01.595Z,6.22
2018-07-21T14:46:30.351Z,5.80
2018-07-21T14:48:59.381Z,5.87
2018-07-21T14:51:28.701Z,6.42
2018-07-21T14:53:57.256Z,6.12
2018-07-21T14:56:26.476Z,6.00
2018-07-21T14:58:55.158Z,5.85
2018-07-21T15:01:24.403Z,6.28
2018-07-21T15:03:53.238Z,5.72
2018-07-21T15:06:22.681Z,6.08
2018-07-21T15:08:52.029Z,5.92
2018-07-21T15:11:20.709Z,6.08
2018-07-21T15:13:49.327Z,6.10
2018-07-21T15:16:18.017Z,6.35
2018-07-21T15:18:46.813Z,5.90
2018-07-21T15:21:15.423Z,5.55
2018-07-21T15:23:44.417Z,5.95
2018-07-21T15:26:13.016Z,5.72
2018-07-21T15:28:41.779Z,5.80
2018-07-21T15:31:10.438Z,5.72
2018-07-21T15:33:39.281Z,6.00
2018-07-21T15:36:08.102Z,5.47
2018-07-21T15:38:36.800Z,6.47
2018-07-21T15:41:05.864Z,5.85
2018-07-21T15:43:35.642Z,5.17
2018-07-21T15:46:04.352Z,5.75
2018-07-21T15:48:33.515Z,6.37
2018-07-21T15:51:02.318Z,5.90
2018-07-21T15:53:32.167Z,5.50
2018-07-21T15:56:01.633Z,6.10
2018-07-21T15:58:30.268Z,5.45
2018-07-21T16:00:59.413Z,5.70
2018-07-21T16:03:28.017Z,5.85
2018-07-21T16:06:00.167Z,5.70
2018-07-21T16:08:28.781Z,6.10
2018-07-21T16:10:57.471Z,5.85
2018-07-21T16:13:26.213Z,5.97
2018-07-21T16:15:55.135Z,6.00
2018-07-21T16:18:23.826Z,6.00
2018-07-21T16:20:52.454Z,6.12
2018-07-21T16:23:21.414Z,6.00
2018-07-21T16:25:50.112Z,6.00
2018-07-21T16:28:18.817Z,5.90
2018-07-21T16:30:47.458Z,6.28
2018-07-21T16:33:16.128Z,5.90
2018-07-21T16:35:45.501Z,6.00
2018-07-21T16:38:14.173Z,6.97
2018-07-21T16:40:43.306Z,6.40
2018-07-21T16:43:12.423Z,6.12
2018-07-21T16:45:41.112Z,5.80
2018-07-21T16:48:09.750Z,5.83
2018-07-21T16:50:39.609Z,5.72
2018-07-21T16:53:08.949Z,5.75
2018-07-21T16:55:38.727Z,5.70
2018-07-21T16:58:07.809Z,6.35
2018-07-21T17:00:36.440Z,5.72
2018-07-21T17:03:06.719Z,5.55
2018-07-21T17:05:35.343Z,5.78
2018-07-21T17:08:04.176Z,6.30
2018-07-21T17:10:32.872Z,5.87
2018-07-21T17:13:02.646Z,6.00
2018-07-21T17:15:32.361Z,5.53
2018-07-21T17:18:01.989Z,5.55
2018-07-21T17:20:30.703Z,6.30
2018-07-21T17:22:59.449Z,5.70
2018-07-21T17:25:28.863Z,5.72
2018-07-21T17:27:57.530Z,5.33
2018-07-21T17:30:26.487Z,5.35
2018-07-21T17:32:55.625Z,5.85
2018-07-21T17:35:24.385Z,5.72
2018-07-21T17:37:53.860Z,5.85
2018-07-21T17:40:22.907Z,5.95
2018-07-21T17:42:51.923Z,5.60
2018-07-21T17:45:20.669Z,5.90
2018-07-21T17:47:49.651Z,5.90
2018-07-21T17:50:18.963Z,5.60
2018-07-21T17:52:47.575Z,5.90
2018-07-21T17:55:16.306Z,5.62
2018-07-21T17:57:44.760Z,6.05
2018-07-21T18:00:14.184Z,5.70
2018-07-21T18:02:43.001Z,6.03
2018-07-21T18:05:11.626Z,6.12
2018-07-21T18:07:40.650Z,5.67
2018-07-21T18:10:10.076Z,6.40
2018-07-21T18:12:39.041Z,6.10
2018-07-21T18:15:07.604Z,6.42
2018-07-21T18:17:37.395Z,5.55
2018-07-21T18:20:06.509Z,5.90
2018-07-21T18:22:35.488Z,6.28
2018-07-21T18:25:04.315Z,6.30
2018-07-21T18:27:33.929Z,5.97
2018-07-21T18:30:02.713Z,6.30
2018-07-21T18:32:31.634Z,6.40
2018-07-21T18:35:00.763Z,6.62
2018-07-21T18:37:29.657Z,6.70
2018-07-21T18:40:00.120Z,6.50
2018-07-21T18:42:29.180Z,6.45
2018-07-21T18:44:59.002Z,6.30
2018-07-21T18:47:27.929Z,6.62
2018-07-21T18:49:56.961Z,6.75
2018-07-21T18:52:25.876Z,6.17
2018-07-21T18:54:54.781Z,6.70
2018-07-21T18:57:23.406Z,6.67
2018-07-21T18:59:52.169Z,6.83
2018-07-21T19:02:20.889Z,6.80
2018-07-21T19:04:50.145Z,6.75
2018-07-21T19:07:18.488Z,7.10
2018-07-21T19:09:47.184Z,6.72
2018-07-21T19:12:21.211Z,7.28
2018-07-21T19:14:49.803Z,6.90
2018-07-21T19:17:18.352Z,6.90
2018-07-21T19:19:52.195Z,7.08
2018-07-21T19:22:21.502Z,6.47
2018-07-21T19:24:51.936Z,6.65
2018-07-21T19:27:25.961Z,7.47
2018-07-21T19:29:54.503Z,6.83
2018-07-21T19:32:28.365Z,7.12
2018-07-21T19:34:57.051Z,7.60
2018-07-21T19:37:31.300Z,7.25
2018-07-21T19:39:59.877Z,7.50
2018-07-21T19:42:28.523Z,7.58
2018-07-21T19:44:57.162Z,7.50
2018-07-21T19:47:25.777Z,7.30
2018-07-21T19:49:54.358Z,7.33
2018-07-21T19:52:22.984Z,7.42
2018-07-21T19:54:51.599Z,7.17
2018-07-21T19:57:20.392Z,7.28
2018-07-21T19:59:48.888Z,6.85
2018-07-21T20:02:17.532Z,7.60
2018-07-21T20:04:46.010Z,7.10
2018-07-21T20:07:14.502Z,7.28
2018-07-21T20:09:44.704Z,7.00
2018-07-21T20:12:13.205Z,7.55
2018-07-21T20:14:41.767Z,7.53
2018-07-21T20:17:10.388Z,7.60
2018-07-21T20:19:39.141Z,7.47
2018-07-21T20:22:07.907Z,7.40
2018-07-21T20:24:37.050Z,7.45
2018-07-21T20:27:05.570Z,7.55
2018-07-21T20:29:34.143Z,6.92
2018-07-21T20:32:04.356Z,7.50
2018-07-21T20:34:33.736Z,7.08
2018-07-21T20:37:02.328Z,7.40
2018-07-21T20:39:30.996Z,7.20
2018-07-21T20:41:59.512Z,7.37
2018-07-21T20:44:28.381Z,7.33
2018-07-21T20:46:57.465Z,7.62
2018-07-21T20:49:26.092Z,7.65
2018-07-21T20:51:55.660Z,7.83
2018-07-21T20:54:24.202Z,7.78
2018-07-21T20:56:52.752Z,7.70
2018-07-21T20:59:21.656Z,8.15
2018-07-21T21:01:51.143Z,7.95
2018-07-21T21:04:19.834Z,8.05
2018-07-21T21:06:48.526Z,7.75
2018-07-21T21:09:17.277Z,7.37
2018-07-21T21:11:46.286Z,7.97
2018-07-21T21:14:14.944Z,8.03
2018-07-21T21:16:44.115Z,7.87
2018-07-21T21:19:12.707Z,7.97
2018-07-21T21:21:41.707Z,7.75
2018-07-21T21:24:10.410Z,8.13
2018-07-21T21:26:39.186Z,8.15
2018-07-21T21:29:08.387Z,8.20
2018-07-21T21:31:37.092Z,8.83
2018-07-21T21:34:05.792Z,8.60
2018-07-21T21:36:34.545Z,8.58
2018-07-21T21:39:03.166Z,8.35
2018-07-21T21:41:32.505Z,8.43
2018-07-21T21:44:01.846Z,8.30
2018-07-21T21:46:30.865Z,8.50
2018-07-21T21:49:01.740Z,8.03
2018-07-21T21:51:32.139Z,8.38
2018-07-21T21:54:02.415Z,8.25
2018-07-21T21:56:34.771Z,8.38
2018-07-21T21:59:06.249Z,8.38
2018-07-21T22:01:36.916Z,8.95
2018-07-21T22:04:07.776Z,8.23
2018-07-21T22:06:39.141Z,8.68
2018-07-21T22:09:11.319Z,8.15
2018-07-21T22:11:41.835Z,8.35
2018-07-21T22:14:12.749Z,8.48
2018-07-21T22:16:43.950Z,9.53
2018-07-21T22:19:14.277Z,9.13
2018-07-21T22:21:44.250Z,9.50
2018-07-21T22:24:14.077Z,9.78
2018-07-21T22:26:44.597Z,9.58
2018-07-21T22:29:13.147Z,9.30
2018-07-21T22:31:45.608Z,9.45
2018-07-21T22:34:15.800Z,8.45
2018-07-21T22:36:45.997Z,8.98
2018-07-21T22:39:16.371Z,8.95
2018-07-21T22:41:46.047Z,9.25
2018-07-21T22:44:14.886Z,9.60
2018-07-21T22:46:44.930Z,8.50
2018-07-21T22:49:14.498Z,9.48
2018-07-21T22:51:44.773Z,8.90
2018-07-21T22:54:13.653Z,9.48
2018-07-21T22:56:42.667Z,8.50
2018-07-21T22:59:12.772Z,9.73
2018-07-21T23:01:43.878Z,9.88
2018-07-21T23:04:14.476Z,9.75
2018-07-21T23:06:43.273Z,9.68
2018-07-21T23:09:13.836Z,9.13
2018-07-21T23:11:44.250Z,9.98
2018-07-21T23:14:15.090Z,8.80
2018-07-21T23:16:46.747Z,9.45
2018-07-21T23:19:18.293Z,9.15
2018-07-21T23:21:49.600Z,9.30
2018-07-21T23:24:19.832Z,9.65
2018-07-21T23:26:51.854Z,8.98
2018-07-21T23:29:22.436Z,10.20
2018-07-21T23:31:53.572Z,10.48
2018-07-21T23:34:23.928Z,9.95
2018-07-21T23:36:53.875Z,10.75
2018-07-21T23:39:24.784Z,10.80
2018-07-21T23:41:56.151Z,10.25
2018-07-21T23:44:26.567Z,10.08
2018-07-21T23:46:57.603Z,9.93
2018-07-21T23:49:28.055Z,9.93
2018-07-21T23:51:59.507Z,9.70
2018-07-21T23:54:31.072Z,9.88
2018-07-21T23:57:01.403Z,10.03
2018-07-21T23:59:33.784Z,10.32
